Time;durP1;ratioP1;P1;durP2;ratioP2;P2;SDS_P1;SDS_P2;PMS_P1;PMS_P2;Temp;Humidity;BMP_temperature;BMP_pressure;BME280_temperature;BME280_humidity;BME280_pressure;Samples;Min_cycle;Max_cycle;Signal;HPM_P1;HPM_P2
2022/07/27 00:02:05;;;;;;;5.28;1.58;;;14.50;99.90;;;;;;5082458;28;20086;-90
2022/07/27 00:04:31;;;;;;;6.32;1.80;;;14.40;99.90;;;;;;5082479;28;20425;-90
2022/07/27 00:06:57;;;;;;;8.45;2.08;;;14.40;99.90;;;;;;5081334;28;20458;-89
2022/07/27 00:09:22;;;;;;;6.43;1.70;;;14.50;99.90;;;;;;5082717;28;20545;-90
2022/07/27 00:11:48;;;;;;;7.20;1.67;;;14.50;99.90;;;;;;5081647;28;20029;-90
2022/07/27 00:14:14;;;;;;;5.07;1.40;;;14.40;99.90;;;;;;5081201;28;20122;-90
2022/07/27 00:16:40;;;;;;;4.85;1.55;;;14.30;99.90;;;;;;5074718;28;20036;-90
2022/07/27 00:19:06;;;;;;;5.88;1.65;;;14.30;99.90;;;;;;5070345;28;20044;-90
2022/07/27 00:21:31;;;;;;;9.10;2.10;;;14.20;99.90;;;;;;5072168;28;20037;-91
2022/07/27 00:23:57;;;;;;;8.57;2.25;;;14.30;99.90;;;;;;5072240;28;20066;-91
2022/07/27 00:26:22;;;;;;;7.10;2.15;;;14.30;99.90;;;;;;5071898;28;20119;-91
2022/07/27 00:28:48;;;;;;;6.88;1.70;;;14.30;99.90;;;;;;5071792;28;20497;-91
2022/07/27 00:31:15;;;;;;;5.85;1.73;;;14.30;99.90;;;;;;5071452;28;20041;-91
2022/07/27 00:33:40;;;;;;;7.32;2.10;;;14.30;99.90;;;;;;5071912;28;20040;-91
2022/07/27 00:36:06;;;;;;;8.35;2.22;;;14.30;99.90;;;;;;5072140;28;20048;-91
2022/07/27 00:38:32;;;;;;;6.43;1.55;;;14.30;99.90;;;;;;5070765;28;20531;-91
2022/07/27 00:40:57;;;;;;;4.82;1.15;;;14.20;99.90;;;;;;5071613;28;20075;-91
2022/07/27 00:43:23;;;;;;;8.20;2.17;;;14.20;99.90;;;;;;5071671;28;20082;-91
2022/07/27 00:45:49;;;;;;;7.38;2.28;;;14.20;99.90;;;;;;5071331;28;20035;-91
2022/07/27 00:48:14;;;;;;;7.85;2.15;;;14.20;99.90;;;;;;5071974;28;20529;-92
2022/07/27 00:50:41;;;;;;;7.68;2.35;;;14.20;99.90;;;;;;5072085;28;20090;-92
2022/07/27 00:53:08;;;;;;;4.97;1.52;;;14.20;99.90;;;;;;5071946;28;20024;-91
2022/07/27 00:55:34;;;;;;;8.27;2.20;;;14.10;99.90;;;;;;5079663;28;20074;-91
2022/07/27 00:58:04;;;;;;;9.18;2.60;;;14.00;99.90;;;;;;5080597;28;20028;-91
2022/07/27 01:00:30;;;;;;;6.35;1.60;;;14.00;99.90;;;;;;5078945;28;20477;-91
2022/07/27 01:02:55;;;;;;;4.43;1.40;;;13.90;99.90;;;;;;5092653;28;20027;-91
2022/07/27 01:05:21;;;;;;;7.10;2.33;;;13.80;99.90;;;;;;5099486;28;20061;-92
2022/07/27 01:07:48;;;;;;;11.23;3.10;;;13.80;99.90;;;;;;5097752;28;20024;-91
2022/07/27 01:10:14;;;;;;;5.40;1.70;;;13.90;99.90;;;;;;5106295;28;20044;-90
2022/07/27 01:12:39;;;;;;;4.10;1.48;;;13.90;99.90;;;;;;5085113;28;20133;-91
2022/07/27 01:15:06;;;;;;;5.50;1.80;;;13.80;99.90;;;;;;5078965;28;20041;-91
2022/07/27 01:17:32;;;;;;;6.45;2.33;;;13.80;99.90;;;;;;5078644;28;20436;-91
2022/07/27 01:19:58;;;;;;;9.63;2.50;;;13.80;99.90;;;;;;5081476;28;20101;-91
2022/07/27 01:22:24;;;;;;;9.20;2.90;;;13.90;99.90;;;;;;5080280;28;20028;-91
2022/07/27 01:24:49;;;;;;;8.48;2.70;;;13.90;99.90;;;;;;5082723;28;20671;-91
2022/07/27 01:27:15;;;;;;;7.05;1.92;;;13.90;99.90;;;;;;5080065;28;20032;-91
2022/07/27 01:29:41;;;;;;;4.20;1.65;;;13.80;99.90;;;;;;5080977;28;20036;-91
2022/07/27 01:32:07;;;;;;;6.97;2.10;;;13.70;99.90;;;;;;5081256;28;20043;-90
2022/07/27 01:34:33;;;;;;;8.95;2.28;;;13.70;99.90;;;;;;5071951;28;20034;-91
2022/07/27 01:36:59;;;;;;;8.25;2.35;;;13.70;99.90;;;;;;5071730;28;20120;-92
2022/07/27 01:39:25;;;;;;;4.82;1.75;;;13.80;99.90;;;;;;5071121;28;20047;-92
2022/07/27 01:41:51;;;;;;;7.53;2.17;;;13.80;99.90;;;;;;5070987;28;20037;-91
2022/07/27 01:44:16;;;;;;;7.93;2.50;;;13.70;99.90;;;;;;5069897;28;20041;-91
2022/07/27 01:46:42;;;;;;;7.38;2.50;;;13.80;99.90;;;;;;5071491;28;20032;-92
2022/07/27 01:49:07;;;;;;;4.90;1.50;;;13.80;99.90;;;;;;5071145;28;20047;-91
2022/07/27 01:51:33;;;;;;;7.28;2.30;;;13.70;99.90;;;;;;5071467;28;20036;-91
2022/07/27 01:53:58;;;;;;;7.90;2.28;;;13.80;99.90;;;;;;5071293;28;20398;-91
2022/07/27 01:56:24;;;;;;;8.05;2.47;;;13.80;99.90;;;;;;5071029;28;20044;-91
2022/07/27 01:58:50;;;;;;;8.25;2.42;;;13.80;99.90;;;;;;5072800;28;20425;-91
2022/07/27 02:01:15;;;;;;;4.68;1.67;;;13.80;99.90;;;;;;5074491;28;20075;-91
2022/07/27 02:03:41;;;;;;;5.30;1.83;;;13.80;99.90;;;;;;5074817;28;20040;-91
2022/07/27 02:06:08;;;;;;;8.00;2.33;;;13.70;99.90;;;;;;5074464;28;20043;-91
2022/07/27 02:08:33;;;;;;;5.63;2.22;;;13.80;99.90;;;;;;5074656;28;20040;-92
2022/07/27 02:13:46;;;;;;;8.27;2.55;;;13.80;99.90;;;;;;5074748;28;20045;-91
2022/07/27 02:16:16;;;;;;;9.20;2.70;;;13.80;99.90;;;;;;5074533;28;20524;-91
2022/07/27 02:18:42;;;;;;;5.60;1.73;;;13.90;99.90;;;;;;5074258;28;20041;-91
2022/07/27 02:21:09;;;;;;;9.93;2.63;;;13.80;99.90;;;;;;5074303;28;20037;-90
2022/07/27 02:23:35;;;;;;;8.23;2.30;;;13.80;99.90;;;;;;5074112;28;20094;-91
2022/07/27 02:26:06;;;;;;;7.25;1.70;;;13.90;99.90;;;;;;5073837;28;20041;-90
2022/07/27 02:28:32;;;;;;;5.55;1.50;;;13.90;99.90;;;;;;5074452;28;20047;-91
2022/07/27 02:30:58;;;;;;;6.07;2.30;;;13.80;99.90;;;;;;5073966;28;20033;-90
2022/07/27 02:33:24;;;;;;;5.97;1.67;;;13.90;99.90;;;;;;5074496;28;20407;-90
2022/07/27 02:35:49;;;;;;;8.63;1.85;;;13.90;99.90;;;;;;5074066;28;20044;-90
2022/07/27 02:38:15;;;;;;;7.22;2.42;;;13.80;99.90;;;;;;5073933;28;20576;-90
2022/07/27 02:40:40;;;;;;;7.63;2.00;;;13.80;99.90;;;;;;5073598;28;20051;-90
2022/07/27 02:43:06;;;;;;;9.98;2.45;;;13.90;99.90;;;;;;5074139;28;20448;-90
2022/07/27 02:45:31;;;;;;;7.68;2.65;;;13.80;99.90;;;;;;5073600;28;20040;-90
2022/07/27 02:47:57;;;;;;;5.57;1.92;;;13.90;99.90;;;;;;5074063;28;20032;-90
2022/07/27 02:50:23;;;;;;;10.55;2.90;;;13.80;99.90;;;;;;5073777;28;20527;-90
2022/07/27 02:52:48;;;;;;;9.18;2.63;;;13.80;99.90;;;;;;5073827;28;20040;-90
2022/07/27 02:55:14;;;;;;;8.75;2.85;;;13.80;99.90;;;;;;5073349;28;20081;-91
2022/07/27 02:57:39;;;;;;;7.95;2.85;;;13.80;99.90;;;;;;5073775;28;20040;-90
2022/07/27 03:00:10;;;;;;;7.85;2.75;;;13.80;99.90;;;;;;5073550;28;20076;-90
2022/07/27 03:02:36;;;;;;;8.38;2.03;;;13.80;99.90;;;;;;5073633;28;20040;-90
2022/07/27 03:05:03;;;;;;;11.30;1.95;;;13.70;99.90;;;;;;5073353;28;20555;-90
2022/07/27 03:07:29;;;;;;;5.72;1.98;;;13.60;99.90;;;;;;5073285;28;20044;-90
2022/07/27 03:09:54;;;;;;;7.00;1.88;;;13.60;99.90;;;;;;5071808;28;20066;-91
2022/07/27 03:12:20;;;;;;;7.78;2.65;;;13.50;99.90;;;;;;5073568;28;20064;-91
2022/07/27 03:14:45;;;;;;;9.60;2.90;;;13.60;99.90;;;;;;5072968;28;20043;-90
2022/07/27 03:17:11;;;;;;;5.38;2.13;;;13.60;99.90;;;;;;5073305;28;20041;-90
2022/07/27 03:19:36;;;;;;;8.23;2.13;;;13.50;99.90;;;;;;5072796;28;20040;-90
2022/07/27 03:22:02;;;;;;;6.68;2.00;;;13.50;99.90;;;;;;5073166;28;20036;-91
2022/07/27 03:24:28;;;;;;;9.73;3.10;;;13.40;99.90;;;;;;5073146;28;20440;-90
2022/07/27 03:26:53;;;;;;;9.10;2.40;;;13.40;99.90;;;;;;5072950;28;20072;-90
2022/07/27 03:29:19;;;;;;;11.40;3.13;;;13.40;99.90;;;;;;5072782;28;20048;-91
2022/07/27 03:31:44;;;;;;;7.72;3.08;;;13.40;99.90;;;;;;5073189;28;20064;-92
2022/07/27 03:34:10;;;;;;;6.47;2.10;;;13.40;99.90;;;;;;5072964;28;20032;-91
2022/07/27 03:36:36;;;;;;;9.25;2.08;;;13.30;99.90;;;;;;5072595;28;20101;-91
2022/07/27 03:39:01;;;;;;;7.07;2.75;;;13.30;99.90;;;;;;5071543;28;20131;-91
2022/07/27 03:41:27;;;;;;;9.85;3.45;;;13.30;99.90;;;;;;5072699;28;20075;-91
2022/07/27 03:43:52;;;;;;;10.15;2.92;;;13.40;99.90;;;;;;5071483;28;20096;-91
2022/07/27 03:46:18;;;;;;;7.75;3.00;;;13.30;99.90;;;;;;5072355;28;20063;-91
2022/07/27 03:48:43;;;;;;;7.13;1.80;;;13.30;99.90;;;;;;5072457;28;20071;-91
2022/07/27 03:51:09;;;;;;;6.13;2.13;;;13.20;99.90;;;;;;5071252;28;20044;-91
2022/07/27 03:53:35;;;;;;;8.52;3.38;;;13.20;99.90;;;;;;5072637;28;20032;-92
2022/07/27 03:56:00;;;;;;;8.57;3.30;;;13.20;99.90;;;;;;5072916;28;20052;-92
2022/07/27 03:58:26;;;;;;;7.40;2.17;;;13.30;99.90;;;;;;5072348;28;20406;-91
2022/07/27 04:00:51;;;;;;;10.30;2.15;;;13.20;99.90;;;;;;5072485;28;20040;-91
2022/07/27 04:03:17;;;;;;;5.88;2.22;;;13.10;99.90;;;;;;5072493;28;20520;-92
2022/07/27 04:05:43;;;;;;;7.68;2.83;;;13.00;99.90;;;;;;5072247;28;20040;-92
2022/07/27 04:08:09;;;;;;;8.95;3.60;;;13.10;99.90;;;;;;5072103;28;20044;-92
2022/07/27 04:10:35;;;;;;;6.90;2.20;;;13.10;99.90;;;;;;5072270;28;20047;-92
2022/07/27 04:13:00;;;;;;;10.50;3.55;;;13.00;99.90;;;;;;5072360;28;20043;-92
2022/07/27 04:15:26;;;;;;;5.95;2.20;;;13.00;99.90;;;;;;5071858;28;20037;-92
2022/07/27 04:17:52;;;;;;;9.30;3.63;;;13.00;99.90;;;;;;5072123;28;20093;-92
2022/07/27 04:20:18;;;;;;;9.35;2.90;;;13.00;99.90;;;;;;5070663;28;20090;-92
2022/07/27 04:22:44;;;;;;;10.82;2.45;;;13.00;99.90;;;;;;5071234;28;20051;-92
2022/07/27 04:25:10;;;;;;;10.48;3.97;;;12.90;99.90;;;;;;5072212;28;20040;-92
2022/07/27 04:27:36;;;;;;;13.07;2.70;;;13.00;99.90;;;;;;5087403;28;20413;-92
2022/07/27 04:30:03;;;;;;;10.45;3.20;;;13.00;99.90;;;;;;5071642;28;20097;-92
2022/07/27 04:32:29;;;;;;;9.45;3.60;;;12.90;99.90;;;;;;5071966;28;20037;-92
2022/07/27 04:34:55;;;;;;;11.70;3.63;;;12.90;99.90;;;;;;5071738;28;20032;-92
2022/07/27 04:37:20;;;;;;;9.82;3.45;;;12.90;99.90;;;;;;5071662;28;20524;-91
2022/07/27 04:39:46;;;;;;;9.57;2.63;;;13.00;99.90;;;;;;5071755;28;20067;-92
2022/07/27 04:42:11;;;;;;;8.60;3.50;;;12.90;99.90;;;;;;5072181;28;20410;-92
2022/07/27 04:44:37;;;;;;;7.13;2.53;;;13.00;99.90;;;;;;5071592;28;20063;-91
2022/07/27 04:47:02;;;;;;;9.75;3.38;;;12.90;99.90;;;;;;5071742;28;20036;-92
2022/07/27 04:49:28;;;;;;;6.97;2.28;;;13.00;99.90;;;;;;5071532;28;20158;-92
2022/07/27 04:51:53;;;;;;;6.55;2.10;;;13.00;99.90;;;;;;5071457;28;20101;-91
2022/07/27 04:54:19;;;;;;;7.88;3.47;;;12.90;99.90;;;;;;5071714;28;20094;-92
2022/07/27 04:56:45;;;;;;;8.18;2.25;;;13.00;99.90;;;;;;5070653;28;20552;-92
2022/07/27 04:59:10;;;;;;;6.95;2.65;;;13.00;99.90;;;;;;5071471;28;20036;-92
2022/07/27 05:01:36;;;;;;;9.20;3.80;;;13.00;99.90;;;;;;5070879;28;20508;-92
2022/07/27 05:04:03;;;;;;;9.30;2.83;;;13.00;99.90;;;;;;5070722;28;20047;-92
2022/07/27 05:06:31;;;;;;;8.85;3.17;;;13.00;99.90;;;;;;5071389;28;20426;-92
2022/07/27 05:08:56;;;;;;;6.78;2.53;;;13.10;99.90;;;;;;5071555;28;20098;-92
2022/07/27 05:11:22;;;;;;;9.38;3.50;;;13.10;99.90;;;;;;5071568;28;20049;-92
2022/07/27 05:13:47;;;;;;;7.65;2.47;;;13.20;99.90;;;;;;5071558;28;20037;-92
2022/07/27 05:16:13;;;;;;;9.27;3.42;;;13.20;99.90;;;;;;5071538;28;20119;-92
2022/07/27 05:18:39;;;;;;;6.97;2.58;;;13.20;99.90;;;;;;5071355;28;20045;-92
2022/07/27 05:21:06;;;;;;;8.73;3.95;;;13.20;99.90;;;;;;5070937;28;20045;-92
2022/07/27 05:23:32;;;;;;;9.02;2.78;;;13.30;99.90;;;;;;5071631;28;20494;-92
2022/07/27 05:25:57;;;;;;;6.15;3.00;;;13.30;99.90;;;;;;5071438;28;20069;-92
2022/07/27 05:28:23;;;;;;;9.88;3.70;;;13.30;99.90;;;;;;5071579;28;20372;-92
2022/07/27 05:30:48;;;;;;;8.20;3.22;;;13.30;99.90;;;;;;5070964;28;20041;-92
2022/07/27 05:33:15;;;;;;;8.60;3.40;;;13.40;99.90;;;;;;5072209;28;20040;-92
2022/07/27 05:35:40;;;;;;;6.78;2.10;;;13.40;99.90;;;;;;5074885;28;20037;-92
2022/07/27 05:38:06;;;;;;;8.15;2.78;;;13.40;99.90;;;;;;5074947;28;20055;-92
2022/07/27 05:40:31;;;;;;;9.60;3.40;;;13.40;99.90;;;;;;5075102;28;20417;-92
2022/07/27 05:42:57;;;;;;;9.20;2.83;;;13.40;99.90;;;;;;5075113;28;20047;-92
2022/07/27 05:45:23;;;;;;;10.82;4.28;;;13.40;99.90;;;;;;5074893;28;20094;-92
2022/07/27 05:47:49;;;;;;;7.97;2.28;;;13.50;99.90;;;;;;5074874;28;20072;-91
2022/07/27 05:50:15;;;;;;;9.98;3.83;;;13.40;99.90;;;;;;5074285;28;20095;-92
2022/07/27 05:52:42;;;;;;;6.72;3.00;;;13.50;99.90;;;;;;5075002;28;20444;-92
2022/07/27 05:55:08;;;;;;;9.48;2.33;;;13.50;99.90;;;;;;5074957;28;20040;-91
2022/07/27 05:57:34;;;;;;;9.55;3.88;;;13.50;99.90;;;;;;5075409;28;20040;-92
2022/07/27 06:00:00;;;;;;;7.78;2.50;;;13.60;99.90;;;;;;5073346;28;20173;-92
2022/07/27 06:02:26;;;;;;;9.75;3.55;;;13.70;99.90;;;;;;5074793;28;20040;-91
2022/07/27 06:04:53;;;;;;;9.85;3.70;;;13.70;99.90;;;;;;5074296;28;20115;-91
2022/07/27 06:10:04;;;;;;;9.25;2.63;;;13.80;99.90;;;;;;5074151;28;20057;-91
2022/07/27 06:12:29;;;;;;;10.43;3.50;;;13.90;99.90;;;;;;5074374;28;20405;-91
2022/07/27 06:14:55;;;;;;;6.88;2.53;;;13.90;99.90;;;;;;5074334;28;20047;-92
2022/07/27 06:17:20;;;;;;;9.00;3.75;;;14.00;99.90;;;;;;5074405;28;20596;-92
2022/07/27 06:19:46;;;;;;;9.35;3.42;;;14.00;99.90;;;;;;5077600;28;20080;-89
2022/07/27 06:22:11;;;;;;;8.38;2.35;;;14.10;99.90;;;;;;5091265;28;20028;-92
2022/07/27 06:25:01;;;;;;;9.88;3.47;;;14.20;99.90;;;;;;5084679;28;20128;-92
2022/07/27 06:27:27;;;;;;;8.80;3.22;;;14.20;99.90;;;;;;5070988;28;20048;-91
2022/07/27 06:29:52;;;;;;;10.38;3.50;;;14.30;99.90;;;;;;5070353;28;20045;-91
2022/07/27 06:32:18;;;;;;;7.80;2.58;;;14.30;99.90;;;;;;5068882;28;20132;-91
2022/07/27 06:35:11;;;;;;;9.85;3.22;;;14.40;99.90;;;;;;5072236;28;20037;-92
2022/07/27 06:37:42;;;;;;;10.00;2.08;;;14.50;99.90;;;;;;5052230;28;20517;-92
2022/07/27 06:40:12;;;;;;;9.43;2.70;;;14.40;99.90;;;;;;5051856;28;20119;-91
2022/07/27 06:42:38;;;;;;;10.82;2.97;;;14.50;99.90;;;;;;5035703;28;20055;-92
2022/07/27 06:45:05;;;;;;;8.30;3.10;;;14.60;99.90;;;;;;5049827;28;20056;-91
2022/07/27 06:47:30;;;;;;;9.13;2.88;;;14.70;99.90;;;;;;5051226;28;20037;-91
2022/07/27 06:49:56;;;;;;;8.82;2.88;;;14.70;99.90;;;;;;5051448;28;20069;-91
2022/07/27 06:52:21;;;;;;;10.25;2.60;;;14.80;99.90;;;;;;5051274;28;20041;-92
2022/07/27 06:54:47;;;;;;;9.52;2.45;;;14.90;99.90;;;;;;5051050;28;20117;-92
2022/07/27 06:57:12;;;;;;;11.65;3.03;;;14.90;99.90;;;;;;5051496;28;20081;-91
2022/07/27 06:59:38;;;;;;;8.63;2.20;;;15.00;99.90;;;;;;5050694;28;20045;-91
2022/07/27 07:02:04;;;;;;;8.27;2.10;;;15.00;99.90;;;;;;5051154;28;20044;-91
2022/07/27 07:04:31;;;;;;;9.02;2.47;;;15.10;99.90;;;;;;5062004;28;20056;-90
2022/07/27 07:06:59;;;;;;;8.32;2.42;;;15.10;99.90;;;;;;5072539;28;20510;-91
2022/07/27 07:09:28;;;;;;;7.30;2.28;;;15.20;99.90;;;;;;5072211;28;20045;-91
2022/07/27 07:11:54;;;;;;;7.78;2.30;;;15.30;99.90;;;;;;5073027;28;20037;-92
2022/07/27 07:14:20;;;;;;;6.57;2.15;;;15.40;99.90;;;;;;5073351;28;20032;-92
2022/07/27 07:16:46;;;;;;;8.80;2.13;;;15.40;99.90;;;;;;5073287;28;20091;-92
2022/07/27 07:19:11;;;;;;;7.07;2.15;;;15.50;99.90;;;;;;5072948;28;20153;-91
2022/07/27 07:21:37;;;;;;;9.80;2.40;;;15.50;99.90;;;;;;5073138;28;20045;-91
2022/07/27 07:24:03;;;;;;;6.72;1.80;;;15.60;99.90;;;;;;5073167;28;20051;-91
2022/07/27 07:26:28;;;;;;;8.85;2.05;;;15.70;99.90;;;;;;5073366;28;20041;-91
2022/07/27 07:28:54;;;;;;;7.95;2.20;;;15.70;99.90;;;;;;5072835;28;20044;-91
2022/07/27 07:31:20;;;;;;;8.70;2.80;;;15.70;99.90;;;;;;5072815;28;20040;-92
2022/07/27 07:33:45;;;;;;;9.05;2.60;;;15.80;99.90;;;;;;5072903;28;20059;-92
2022/07/27 07:36:11;;;;;;;8.57;2.25;;;15.80;99.90;;;;;;5072848;28;20054;-91
2022/07/27 07:38:36;;;;;;;8.18;2.30;;;15.90;99.90;;;;;;5072612;28;20104;-92
2022/07/27 07:41:02;;;;;;;8.00;2.13;;;15.90;99.90;;;;;;5072759;28;20125;-92
2022/07/27 07:43:28;;;;;;;9.57;2.25;;;16.00;99.90;;;;;;5073058;28;20051;-91
2022/07/27 07:45:54;;;;;;;9.13;1.98;;;16.00;99.90;;;;;;5072407;28;20048;-91
2022/07/27 07:48:20;;;;;;;7.50;1.98;;;16.10;99.90;;;;;;5072933;28;20036;-91
2022/07/27 07:50:48;;;;;;;6.50;1.60;;;16.20;99.90;;;;;;5072427;28;20039;-90
2022/07/27 07:53:14;;;;;;;6.80;1.70;;;16.30;99.90;;;;;;5072963;28;20559;-91
2022/07/27 07:55:40;;;;;;;6.82;1.52;;;16.30;99.90;;;;;;5070605;28;20476;-91
2022/07/27 07:58:05;;;;;;;5.70;1.40;;;16.30;99.90;;;;;;5072267;28;20037;-91
2022/07/27 08:00:31;;;;;;;6.45;1.50;;;16.40;99.90;;;;;;5072116;28;20043;-91
2022/07/27 08:02:57;;;;;;;7.30;1.50;;;16.40;99.90;;;;;;5071472;28;20398;-91
2022/07/27 08:05:23;;;;;;;6.15;1.45;;;16.50;99.90;;;;;;5087498;28;20482;-91
2022/07/27 08:07:50;;;;;;;6.10;1.10;;;16.50;99.90;;;;;;5072074;28;20446;-91
2022/07/27 08:10:18;;;;;;;5.03;1.48;;;16.60;99.90;;;;;;5070880;28;20557;-91
2022/07/27 08:12:47;;;;;;;6.65;1.25;;;16.60;99.90;;;;;;5072264;28;20131;-91
2022/07/27 08:15:14;;;;;;;6.50;1.50;;;16.70;99.90;;;;;;5072098;28;20497;-91
2022/07/27 08:17:41;;;;;;;5.03;1.20;;;16.70;99.90;;;;;;5072153;28;20072;-91
2022/07/27 08:20:07;;;;;;;5.18;1.27;;;16.80;99.90;;;;;;5071219;28;20117;-91
2022/07/27 08:22:34;;;;;;;4.88;1.20;;;16.80;99.90;;;;;;5072284;28;20045;-92
2022/07/27 08:25:00;;;;;;;7.75;1.30;;;16.90;99.90;;;;;;5070895;28;20048;-91
2022/07/27 08:27:26;;;;;;;7.85;1.65;;;16.90;99.90;;;;;;5076231;28;20032;-91
2022/07/27 08:29:52;;;;;;;6.32;1.65;;;17.00;99.90;;;;;;5091923;28;20587;-92
2022/07/27 08:32:18;;;;;;;6.40;1.20;;;17.00;99.90;;;;;;5092034;28;20122;-92
2022/07/27 08:34:43;;;;;;;6.53;1.20;;;17.10;99.90;;;;;;5091782;28;20028;-91
2022/07/27 08:37:09;;;;;;;7.50;1.50;;;17.20;99.90;;;;;;5091638;28;20040;-91
2022/07/27 08:39:35;;;;;;;6.00;1.40;;;17.30;99.90;;;;;;5092061;28;20046;-92
2022/07/27 08:42:03;;;;;;;9.48;1.60;;;17.30;99.90;;;;;;5092192;28;20052;-91
2022/07/27 08:44:30;;;;;;;9.10;1.60;;;17.40;99.90;;;;;;5087425;28;20036;-91
2022/07/27 08:46:58;;;;;;;8.23;1.60;;;17.50;99.90;;;;;;5071790;28;20040;-91
2022/07/27 08:49:26;;;;;;;5.35;1.35;;;17.60;99.90;;;;;;5071331;28;20036;-91
2022/07/27 08:51:51;;;;;;;7.25;1.73;;;17.70;99.90;;;;;;5072109;28;20039;-92
2022/07/27 08:54:17;;;;;;;7.82;1.70;;;17.80;99.90;;;;;;5071618;28;20032;-92
2022/07/27 08:56:43;;;;;;;9.77;1.85;;;17.90;99.90;;;;;;5071870;28;20098;-91
2022/07/27 08:59:08;;;;;;;7.80;1.70;;;17.90;99.90;;;;;;5071417;28;20036;-92
2022/07/27 09:01:38;;;;;;;7.35;1.65;;;18.00;99.90;;;;;;5071765;28;20119;-92
2022/07/27 09:04:06;;;;;;;6.78;2.30;;;18.00;99.90;;;;;;5071719;28;20406;-91
2022/07/27 09:06:58;;;;;;;8.60;1.98;;;18.10;99.90;;;;;;5071370;28;20577;-91
2022/07/27 09:09:24;;;;;;;9.20;1.70;;;18.20;99.90;;;;;;5074393;28;20134;-91
2022/07/27 09:12:07;;;;;;;7.05;1.50;;;18.20;99.90;;;;;;5075685;28;20486;-92
2022/07/27 09:14:34;;;;;;;6.88;1.60;;;18.20;99.90;;;;;;5075830;28;20036;-92
2022/07/27 09:17:24;;;;;;;7.15;1.50;;;18.20;99.90;;;;;;5075753;28;20041;-91
2022/07/27 09:20:03;;;;;;;5.50;1.48;;;18.30;99.90;;;;;;5075542;28;20119;-91
2022/07/27 09:22:39;;;;;;;7.82;1.55;;;18.40;99.90;;;;;;5075576;28;20040;-92
2022/07/27 09:25:06;;;;;;;5.47;1.42;;;18.50;99.90;;;;;;5075274;28;20601;-91
2022/07/27 09:27:32;;;;;;;8.18;1.52;;;18.60;99.90;;;;;;5075576;28;20045;-92
2022/07/27 09:30:06;;;;;;;5.90;1.40;;;18.70;99.90;;;;;;5074901;28;20033;-92
2022/07/27 09:32:33;;;;;;;8.52;1.60;;;18.80;99.90;;;;;;5075359;28;20068;-92
2022/07/27 09:35:14;;;;;;;7.13;1.48;;;18.90;99.90;;;;;;5074845;28;20037;-92
2022/07/27 09:37:39;;;;;;;9.38;3.10;;;18.90;99.90;;;;;;5075498;28;20040;-92
2022/07/27 09:40:20;;;;;;;6.75;1.40;;;18.90;99.90;;;;;;5074970;28;20640;-93
2022/07/27 09:42:46;;;;;;;6.80;1.35;;;19.00;99.90;;;;;;5075213;28;20497;-92
2022/07/27 09:45:33;;;;;;;4.72;1.40;;;19.00;99.90;;;;;;5074605;28;20063;-92
2022/07/27 09:48:10;;;;;;;7.93;1.98;;;19.00;99.90;;;;;;5075086;28;20083;-92
2022/07/27 09:50:39;;;;;;;8.18;2.13;;;19.00;99.90;;;;;;5074821;28;20040;-92
2022/07/27 09:53:17;;;;;;;8.05;3.13;;;19.00;99.90;;;;;;5074946;28;20041;-92
2022/07/27 09:56:04;;;;;;;10.90;2.92;;;19.00;99.90;;;;;;5074572;28;20098;-91
2022/07/27 09:58:52;;;;;;;9.57;2.35;;;18.90;99.90;;;;;;5074653;28;20040;-92
2022/07/27 10:01:31;;;;;;;8.63;2.65;;;18.80;99.90;;;;;;5082502;28;20042;-92
2022/07/27 10:04:07;;;;;;;8.23;2.63;;;18.80;99.90;;;;;;5085412;28;20428;-92
2022/07/27 10:06:33;;;;;;;10.82;4.22;;;18.70;99.90;;;;;;5080009;28;20098;-91
2022/07/27 10:09:00;;;;;;;9.60;2.35;;;18.70;99.90;;;;;;5074640;28;20036;-91
2022/07/27 10:11:27;;;;;;;7.32;1.75;;;18.70;99.90;;;;;;5074551;28;20040;-92
2022/07/27 10:13:55;;;;;;;10.88;3.90;;;18.70;99.90;;;;;;5074476;28;20040;-92
2022/07/27 10:16:29;;;;;;;7.90;2.08;;;18.80;99.90;;;;;;5074048;28;20072;-92
2022/07/27 10:19:04;;;;;;;8.02;1.85;;;18.80;99.90;;;;;;5073290;28;20040;-91
2022/07/27 10:21:35;;;;;;;9.23;1.58;;;18.80;99.90;;;;;;5074431;28;20040;-92
2022/07/27 10:24:03;;;;;;;7.40;2.05;;;18.80;99.90;;;;;;5074236;28;20444;-92
2022/07/27 10:26:33;;;;;;;6.28;1.50;;;18.80;99.90;;;;;;5074235;28;20118;-92
2022/07/27 10:29:13;;;;;;;8.07;1.85;;;18.90;99.90;;;;;;5074035;28;20032;-92
2022/07/27 10:31:40;;;;;;;7.05;1.67;;;18.90;99.90;;;;;;5074513;28;20090;-92
2022/07/27 10:34:08;;;;;;;9.70;1.90;;;19.00;99.90;;;;;;5074393;28;20036;-91
2022/07/27 10:36:34;;;;;;;8.43;1.80;;;19.10;99.90;;;;;;5074219;28;20127;-92
2022/07/27 10:39:02;;;;;;;8.27;1.70;;;19.10;99.90;;;;;;5073979;28;20075;-92
2022/07/27 10:41:38;;;;;;;7.07;1.60;;;19.20;99.90;;;;;;5080087;28;20032;-92
2022/07/27 10:44:24;;;;;;;6.15;1.33;;;19.30;99.90;;;;;;5084518;28;20044;-92
2022/07/27 10:47:01;;;;;;;8.70;2.08;;;19.40;99.90;;;;;;5084511;28;20101;-92
2022/07/27 10:49:34;;;;;;;7.00;1.40;;;19.50;99.90;;;;;;5084383;28;20036;-91
2022/07/27 10:52:00;;;;;;;7.57;1.75;;;19.60;99.90;;;;;;5076630;28;20409;-92
2022/07/27 10:54:26;;;;;;;7.00;1.50;;;19.70;99.90;;;;;;5073547;28;20498;-92
2022/07/27 10:56:54;;;;;;;6.57;1.50;;;19.80;99.90;;;;;;5073969;28;20075;-92
2022/07/27 10:59:38;;;;;;;7.25;1.35;;;19.90;99.90;;;;;;5073482;28;20086;-92
2022/07/27 11:02:05;;;;;;;5.07;1.30;;;20.10;99.90;;;;;;5073382;28;20044;-92
2022/07/27 11:04:32;;;;;;;5.65;1.35;;;20.20;99.90;;;;;;5073278;28;20093;-92
2022/07/27 11:06:59;;;;;;;7.32;1.30;;;20.20;99.90;;;;;;5073164;28;20048;-92
2022/07/27 11:09:37;;;;;;;5.68;1.40;;;20.30;99.90;;;;;;5071909;28;20051;-92
2022/07/27 11:12:08;;;;;;;6.60;1.38;;;20.40;99.90;;;;;;5073583;28;20079;-92
2022/07/27 11:14:52;;;;;;;5.97;1.40;;;20.40;99.90;;;;;;5071844;28;20421;-92
2022/07/27 11:17:20;;;;;;;6.90;1.60;;;20.50;99.90;;;;;;5073170;28;20536;-92
2022/07/27 11:19:57;;;;;;;6.78;1.40;;;20.60;99.90;;;;;;5073100;28;20086;-93
2022/07/27 11:22:32;;;;;;;6.47;1.42;;;20.60;99.90;;;;;;5073404;28;20090;-92
2022/07/27 11:24:58;;;;;;;6.07;1.33;;;20.70;99.90;;;;;;5073200;28;20305;-92
2022/07/27 11:27:25;;;;;;;5.68;1.70;;;20.80;99.90;;;;;;5073090;28;20518;-92
2022/07/27 11:29:50;;;;;;;6.10;1.50;;;20.90;99.90;;;;;;5072518;28;20453;-92
2022/07/27 11:32:18;;;;;;;6.63;1.30;;;21.00;99.90;;;;;;5073273;28;20037;-92
2022/07/27 11:34:44;;;;;;;5.07;1.20;;;21.10;99.90;;;;;;5071698;28;20083;-93
2022/07/27 11:37:18;;;;;;;5.25;1.02;;;21.10;98.30;;;;;;5072971;28;20075;-93
2022/07/27 11:39:45;;;;;;;6.32;1.23;;;21.10;98.60;;;;;;5072677;28;20090;-92
2022/07/27 11:42:11;;;;;;;7.00;1.40;;;21.20;98.80;;;;;;5072464;28;20055;-92
2022/07/27 11:44:38;;;;;;;7.65;1.60;;;21.20;97.50;;;;;;5072724;28;20032;-92
2022/07/27 11:47:04;;;;;;;6.35;1.55;;;21.20;97.70;;;;;;5072699;28;20052;-92
2022/07/27 11:49:32;;;;;;;6.88;1.40;;;21.10;98.10;;;;;;5072492;28;20093;-92
2022/07/27 11:52:06;;;;;;;6.07;1.50;;;21.10;98.60;;;;;;5072851;28;20040;-92
2022/07/27 11:54:37;;;;;;;6.63;1.40;;;21.10;98.40;;;;;;5072491;28;20075;-92
2022/07/27 11:57:12;;;;;;;6.22;1.30;;;21.10;98.60;;;;;;5072551;28;20110;-93
2022/07/27 11:59:39;;;;;;;7.97;1.50;;;21.10;97.10;;;;;;5072451;28;20097;-93
2022/07/27 12:02:18;;;;;;;5.15;1.38;;;21.20;97.10;;;;;;5071002;28;20044;-92
2022/07/27 12:04:51;;;;;;;6.45;1.50;;;21.30;97.30;;;;;;5072324;28;20072;-92
2022/07/27 12:07:26;;;;;;;10.38;1.73;;;21.30;96.90;;;;;;5072118;28;20092;-93
2022/07/27 12:09:57;;;;;;;5.78;1.52;;;21.50;99.00;;;;;;5079127;28;20054;-93
2022/07/27 12:12:28;;;;;;;5.93;1.73;;;21.70;95.40;;;;;;5092616;28;20189;-93
2022/07/27 12:15:21;;;;;;;8.55;1.55;;;22.00;94.40;;;;;;5091134;28;20096;-93
2022/07/27 12:17:53;;;;;;;;;;;22.20;94.40;;;;;;5088579;28;20052;-93
2022/07/27 12:20:23;;;;;;;7.07;1.40;;;22.20;92.70;;;;;;5091912;28;19960;-93
2022/07/27 12:22:51;;;;;;;6.28;1.30;;;22.30;92.80;;;;;;5092088;28;20090;-93
2022/07/27 12:25:16;;;;;;;8.05;1.45;;;22.50;91.20;;;;;;5098879;28;20447;-93
2022/07/27 12:27:59;;;;;;;4.82;1.20;;;22.50;91.40;;;;;;5093921;28;20048;-93
2022/07/27 12:30:32;;;;;;;6.40;1.38;;;22.60;91.70;;;;;;5078925;28;20033;-93
2022/07/27 12:32:58;;;;;;;6.35;1.48;;;22.60;88.40;;;;;;5090124;28;20042;-93
2022/07/27 12:35:27;;;;;;;6.53;1.40;;;22.60;89.90;;;;;;5090392;28;20122;-93
2022/07/27 12:38:02;;;;;;;5.30;1.20;;;22.60;88.90;;;;;;5090632;28;20383;-93
2022/07/27 12:40:29;;;;;;;7.22;1.40;;;22.70;86.10;;;;;;5106429;28;20166;-93
2022/07/27 12:42:58;;;;;;;5.72;1.65;;;22.70;86.40;;;;;;5090842;28;20512;-93
2022/07/27 12:45:32;;;;;;;7.30;1.30;;;22.70;84.50;;;;;;5091145;28;20748;-92
2022/07/27 12:48:07;;;;;;;6.72;1.20;;;22.60;84.60;;;;;;5089774;28;20040;-93
2022/07/27 12:50:33;;;;;;;8.73;1.40;;;22.60;84.80;;;;;;5091769;28;20040;-93
2022/07/27 12:52:59;;;;;;;8.18;1.55;;;22.60;83.90;;;;;;5091948;28;20144;-93
2022/07/27 12:55:25;;;;;;;5.43;1.13;;;22.70;87.80;;;;;;5091855;28;20170;-93